sensor_id;sensor_type;location;lat;lon;timestamp;P1;durP1;ratioP1;P2;durP2;ratioP2
53654;SDS011;39558;52.028;8.536;2023-03-05T00:00:35;4.43;;;1.17;;
53654;SDS011;39558;52.028;8.536;2023-03-05T00:03:01;3.65;;;1.48;;
53654;SDS011;39558;52.028;8.536;2023-03-05T00:05:27;3.53;;;0.93;;
53654;SDS011;39558;52.028;8.536;2023-03-05T00:07:53;4.00;;;1.25;;
53654;SDS011;39558;52.028;8.536;2023-03-05T00:10:19;5.82;;;1.48;;
53654;SDS011;39558;52.028;8.536;2023-03-05T00:12:45;3.03;;;1.00;;
53654;SDS011;39558;52.028;8.536;2023-03-05T00:15:11;5.07;;;1.60;;
53654;SDS011;39558;52.028;8.536;2023-03-05T00:17:37;4.03;;;1.13;;
53654;SDS011;39558;52.028;8.536;2023-03-05T00:20:03;3.90;;;1.40;;
53654;SDS011;39558;52.028;8.536;2023-03-05T00:22:29;5.07;;;1.20;;
53654;SDS011;39558;52.028;8.536;2023-03-05T00:24:55;4.35;;;0.90;;
53654;SDS011;39558;52.028;8.536;2023-03-05T00:27:20;6.05;;;1.52;;
53654;SDS011;39558;52.028;8.536;2023-03-05T00:29:46;2.50;;;0.77;;
53654;SDS011;39558;52.028;8.536;2023-03-05T00:32:12;4.20;;;1.85;;
53654;SDS011;39558;52.028;8.536;2023-03-05T00:34:38;3.30;;;1.20;;
53654;SDS011;39558;52.028;8.536;2023-03-05T00:37:04;5.90;;;1.70;;
53654;SDS011;39558;52.028;8.536;2023-03-05T00:39:31;7.50;;;1.38;;
53654;SDS011;39558;52.028;8.536;2023-03-05T00:41:57;5.68;;;1.15;;
53654;SDS011;39558;52.028;8.536;2023-03-05T00:44:23;5.53;;;1.20;;
53654;SDS011;39558;52.028;8.536;2023-03-05T00:46:49;5.28;;;1.17;;
53654;SDS011;39558;52.028;8.536;2023-03-05T00:49:15;5.35;;;1.27;;
53654;SDS011;39558;52.028;8.536;2023-03-05T00:51:41;4.68;;;1.13;;
53654;SDS011;39558;52.028;8.536;2023-03-05T00:54:06;4.90;;;1.13;;
53654;SDS011;39558;52.028;8.536;2023-03-05T00:56:32;4.18;;;1.20;;
53654;SDS011;39558;52.028;8.536;2023-03-05T00:58:58;3.75;;;1.17;;
53654;SDS011;39558;52.028;8.536;2023-03-05T01:01:24;3.58;;;1.20;;
53654;SDS011;39558;52.028;8.536;2023-03-05T01:03:52;3.28;;;1.02;;
53654;SDS011;39558;52.028;8.536;2023-03-05T01:06:20;6.40;;;1.35;;
53654;SDS011;39558;52.028;8.536;2023-03-05T01:08:46;4.75;;;1.33;;
53654;SDS011;39558;52.028;8.536;2023-03-05T01:11:12;5.03;;;1.33;;
53654;SDS011;39558;52.028;8.536;2023-03-05T01:13:38;4.15;;;0.85;;
53654;SDS011;39558;52.028;8.536;2023-03-05T01:16:05;2.67;;;1.13;;
53654;SDS011;39558;52.028;8.536;2023-03-05T01:18:31;5.28;;;1.52;;
53654;SDS011;39558;52.028;8.536;2023-03-05T01:20:56;2.42;;;0.75;;
53654;SDS011;39558;52.028;8.536;2023-03-05T01:23:22;2.60;;;1.08;;
53654;SDS011;39558;52.028;8.536;2023-03-05T01:25:52;5.45;;;0.95;;
53654;SDS011;39558;52.028;8.536;2023-03-05T01:28:19;4.18;;;1.75;;
53654;SDS011;39558;52.028;8.536;2023-03-05T01:30:44;2.97;;;0.88;;
53654;SDS011;39558;52.028;8.536;2023-03-05T01:33:10;5.03;;;1.05;;
53654;SDS011;39558;52.028;8.536;2023-03-05T01:35:36;6.25;;;1.00;;
53654;SDS011;39558;52.028;8.536;2023-03-05T01:38:02;5.05;;;0.80;;
53654;SDS011;39558;52.028;8.536;2023-03-05T01:40:29;3.03;;;0.90;;
53654;SDS011;39558;52.028;8.536;2023-03-05T01:42:57;6.22;;;1.30;;
53654;SDS011;39558;52.028;8.536;2023-03-05T01:45:23;3.10;;;0.95;;
53654;SDS011;39558;52.028;8.536;2023-03-05T01:47:48;5.05;;;1.02;;
53654;SDS011;39558;52.028;8.536;2023-03-05T01:50:15;2.25;;;0.65;;
53654;SDS011;39558;52.028;8.536;2023-03-05T01:52:43;3.70;;;1.00;;
53654;SDS011;39558;52.028;8.536;2023-03-05T01:55:14;4.30;;;1.42;;
53654;SDS011;39558;52.028;8.536;2023-03-05T01:57:45;3.55;;;1.33;;
53654;SDS011;39558;52.028;8.536;2023-03-05T02:00:16;2.95;;;0.90;;
53654;SDS011;39558;52.028;8.536;2023-03-05T02:02:42;3.75;;;1.00;;
53654;SDS011;39558;52.028;8.536;2023-03-05T02:05:10;4.82;;;1.02;;
53654;SDS011;39558;52.028;8.536;2023-03-05T02:07:37;3.28;;;0.80;;
53654;SDS011;39558;52.028;8.536;2023-03-05T02:10:14;4.50;;;1.33;;
53654;SDS011;39558;52.028;8.536;2023-03-05T02:12:40;3.38;;;0.93;;
53654;SDS011;39558;52.028;8.536;2023-03-05T02:15:06;2.17;;;0.60;;
53654;SDS011;39558;52.028;8.536;2023-03-05T02:17:32;5.10;;;0.90;;
53654;SDS011;39558;52.028;8.536;2023-03-05T02:20:02;3.60;;;1.00;;
53654;SDS011;39558;52.028;8.536;2023-03-05T02:24:54;3.58;;;0.95;;
53654;SDS011;39558;52.028;8.536;2023-03-05T02:27:22;4.75;;;0.80;;
53654;SDS011;39558;52.028;8.536;2023-03-05T02:29:49;2.00;;;0.80;;
53654;SDS011;39558;52.028;8.536;2023-03-05T02:32:16;3.33;;;0.85;;
53654;SDS011;39558;52.028;8.536;2023-03-05T02:34:42;2.58;;;0.88;;
53654;SDS011;39558;52.028;8.536;2023-03-05T02:37:08;5.00;;;0.82;;
53654;SDS011;39558;52.028;8.536;2023-03-05T02:39:34;4.05;;;0.98;;
53654;SDS011;39558;52.028;8.536;2023-03-05T02:42:00;3.25;;;0.70;;
53654;SDS011;39558;52.028;8.536;2023-03-05T02:44:26;4.10;;;0.80;;
53654;SDS011;39558;52.028;8.536;2023-03-05T02:46:52;3.55;;;0.80;;
53654;SDS011;39558;52.028;8.536;2023-03-05T02:49:18;3.35;;;1.23;;
53654;SDS011;39558;52.028;8.536;2023-03-05T02:51:43;2.97;;;0.82;;
53654;SDS011;39558;52.028;8.536;2023-03-05T02:54:09;2.92;;;0.55;;
53654;SDS011;39558;52.028;8.536;2023-03-05T02:56:35;3.22;;;0.75;;
53654;SDS011;39558;52.028;8.536;2023-03-05T02:59:03;4.63;;;1.00;;
53654;SDS011;39558;52.028;8.536;2023-03-05T03:01:29;4.25;;;0.98;;
53654;SDS011;39558;52.028;8.536;2023-03-05T03:03:55;2.58;;;0.55;;
53654;SDS011;39558;52.028;8.536;2023-03-05T03:06:21;2.13;;;0.52;;
53654;SDS011;39558;52.028;8.536;2023-03-05T03:08:47;3.65;;;1.00;;
53654;SDS011;39558;52.028;8.536;2023-03-05T03:11:13;3.00;;;0.80;;
53654;SDS011;39558;52.028;8.536;2023-03-05T03:13:39;2.20;;;0.77;;
53654;SDS011;39558;52.028;8.536;2023-03-05T03:16:06;3.90;;;0.73;;
53654;SDS011;39558;52.028;8.536;2023-03-05T03:18:33;2.42;;;0.82;;
53654;SDS011;39558;52.028;8.536;2023-03-05T03:20:58;5.07;;;0.77;;
53654;SDS011;39558;52.028;8.536;2023-03-05T03:23:25;2.78;;;0.80;;
53654;SDS011;39558;52.028;8.536;2023-03-05T03:25:51;3.47;;;0.70;;
53654;SDS011;39558;52.028;8.536;2023-03-05T03:28:17;4.38;;;1.02;;
53654;SDS011;39558;52.028;8.536;2023-03-05T03:30:43;2.35;;;0.63;;
53654;SDS011;39558;52.028;8.536;2023-03-05T03:33:09;4.43;;;1.15;;
53654;SDS011;39558;52.028;8.536;2023-03-05T03:35:35;2.88;;;0.82;;
53654;SDS011;39558;52.028;8.536;2023-03-05T03:38:01;2.80;;;0.77;;
53654;SDS011;39558;52.028;8.536;2023-03-05T03:40:27;2.15;;;0.55;;
53654;SDS011;39558;52.028;8.536;2023-03-05T03:42:53;2.53;;;0.60;;
53654;SDS011;39558;52.028;8.536;2023-03-05T03:45:18;1.33;;;0.65;;
53654;SDS011;39558;52.028;8.536;2023-03-05T03:47:48;2.83;;;0.70;;
53654;SDS011;39558;52.028;8.536;2023-03-05T03:50:14;3.50;;;0.95;;
53654;SDS011;39558;52.028;8.536;2023-03-05T03:52:40;2.50;;;0.98;;
53654;SDS011;39558;52.028;8.536;2023-03-05T03:55:06;1.10;;;0.40;;
53654;SDS011;39558;52.028;8.536;2023-03-05T03:57:32;2.25;;;0.60;;
53654;SDS011;39558;52.028;8.536;2023-03-05T03:59:58;2.47;;;0.63;;
53654;SDS011;39558;52.028;8.536;2023-03-05T04:02:24;1.88;;;0.70;;
53654;SDS011;39558;52.028;8.536;2023-03-05T04:04:50;2.80;;;0.70;;
53654;SDS011;39558;52.028;8.536;2023-03-05T04:07:17;3.92;;;0.88;;
53654;SDS011;39558;52.028;8.536;2023-03-05T04:09:43;4.43;;;1.35;;
53654;SDS011;39558;52.028;8.536;2023-03-05T04:12:08;2.63;;;0.70;;
53654;SDS011;39558;52.028;8.536;2023-03-05T04:14:35;2.53;;;0.82;;
53654;SDS011;39558;52.028;8.536;2023-03-05T04:17:01;2.60;;;0.55;;
53654;SDS011;39558;52.028;8.536;2023-03-05T04:19:26;1.77;;;0.73;;
53654;SDS011;39558;52.028;8.536;2023-03-05T04:21:54;3.85;;;0.63;;
53654;SDS011;39558;52.028;8.536;2023-03-05T04:24:20;3.78;;;0.63;;
53654;SDS011;39558;52.028;8.536;2023-03-05T04:26:46;1.85;;;0.52;;
53654;SDS011;39558;52.028;8.536;2023-03-05T04:29:12;3.08;;;0.50;;
53654;SDS011;39558;52.028;8.536;2023-03-05T04:31:38;2.42;;;0.60;;
53654;SDS011;39558;52.028;8.536;2023-03-05T04:34:04;1.88;;;0.63;;
53654;SDS011;39558;52.028;8.536;2023-03-05T04:36:29;2.05;;;0.50;;
53654;SDS011;39558;52.028;8.536;2023-03-05T04:38:55;3.00;;;0.70;;
53654;SDS011;39558;52.028;8.536;2023-03-05T04:41:21;4.22;;;0.73;;
53654;SDS011;39558;52.028;8.536;2023-03-05T04:43:47;2.10;;;0.70;;
53654;SDS011;39558;52.028;8.536;2023-03-05T04:46:13;2.42;;;0.50;;
53654;SDS011;39558;52.028;8.536;2023-03-05T04:48:39;3.35;;;0.65;;
53654;SDS011;39558;52.028;8.536;2023-03-05T04:51:05;2.60;;;0.70;;
53654;SDS011;39558;52.028;8.536;2023-03-05T04:53:31;2.03;;;0.63;;
53654;SDS011;39558;52.028;8.536;2023-03-05T04:55:57;1.85;;;0.50;;
53654;SDS011;39558;52.028;8.536;2023-03-05T04:58:25;2.25;;;0.73;;
53654;SDS011;39558;52.028;8.536;2023-03-05T05:00:51;5.32;;;0.82;;
53654;SDS011;39558;52.028;8.536;2023-03-05T05:03:17;4.13;;;1.00;;
53654;SDS011;39558;52.028;8.536;2023-03-05T05:05:43;3.10;;;0.65;;
53654;SDS011;39558;52.028;8.536;2023-03-05T05:08:09;2.35;;;0.60;;
53654;SDS011;39558;52.028;8.536;2023-03-05T05:10:35;1.95;;;0.60;;
53654;SDS011;39558;52.028;8.536;2023-03-05T05:13:03;2.35;;;0.43;;
53654;SDS011;39558;52.028;8.536;2023-03-05T05:15:29;2.80;;;0.70;;
53654;SDS011;39558;52.028;8.536;2023-03-05T05:17:56;1.20;;;0.40;;
53654;SDS011;39558;52.028;8.536;2023-03-05T05:20:22;3.50;;;0.80;;
53654;SDS011;39558;52.028;8.536;2023-03-05T05:22:48;2.90;;;0.90;;
53654;SDS011;39558;52.028;8.536;2023-03-05T05:25:14;1.55;;;0.30;;
53654;SDS011;39558;52.028;8.536;2023-03-05T05:27:40;2.17;;;0.57;;
53654;SDS011;39558;52.028;8.536;2023-03-05T05:30:06;1.02;;;0.30;;
53654;SDS011;39558;52.028;8.536;2023-03-05T05:32:32;2.00;;;0.60;;
53654;SDS011;39558;52.028;8.536;2023-03-05T05:34:58;2.55;;;0.60;;
53654;SDS011;39558;52.028;8.536;2023-03-05T05:37:24;2.20;;;0.60;;
53654;SDS011;39558;52.028;8.536;2023-03-05T05:39:51;2.47;;;0.60;;
53654;SDS011;39558;52.028;8.536;2023-03-05T05:42:17;3.42;;;0.80;;
53654;SDS011;39558;52.028;8.536;2023-03-05T05:44:43;1.00;;;0.30;;
53654;SDS011;39558;52.028;8.536;2023-03-05T05:47:09;2.13;;;0.57;;
53654;SDS011;39558;52.028;8.536;2023-03-05T05:49:35;2.05;;;0.55;;
53654;SDS011;39558;52.028;8.536;2023-03-05T05:52:01;1.70;;;0.40;;
53654;SDS011;39558;52.028;8.536;2023-03-05T05:54:27;1.30;;;0.35;;
53654;SDS011;39558;52.028;8.536;2023-03-05T05:56:53;1.92;;;0.43;;
53654;SDS011;39558;52.028;8.536;2023-03-05T05:59:19;4.05;;;0.98;;
53654;SDS011;39558;52.028;8.536;2023-03-05T06:01:44;3.30;;;1.08;;
53654;SDS011;39558;52.028;8.536;2023-03-05T06:04:10;2.55;;;0.40;;
53654;SDS011;39558;52.028;8.536;2023-03-05T06:06:36;3.28;;;0.80;;
53654;SDS011;39558;52.028;8.536;2023-03-05T06:09:03;2.45;;;0.75;;
53654;SDS011;39558;52.028;8.536;2023-03-05T06:11:29;1.65;;;0.40;;
53654;SDS011;39558;52.028;8.536;2023-03-05T06:13:55;3.15;;;0.60;;
53654;SDS011;39558;52.028;8.536;2023-03-05T06:16:22;1.60;;;0.65;;
53654;SDS011;39558;52.028;8.536;2023-03-05T06:18:49;1.48;;;0.47;;
53654;SDS011;39558;52.028;8.536;2023-03-05T06:21:16;2.83;;;0.65;;
53654;SDS011;39558;52.028;8.536;2023-03-05T06:23:42;2.45;;;0.68;;
53654;SDS011;39558;52.028;8.536;2023-03-05T06:26:09;0.98;;;0.45;;
53654;SDS011;39558;52.028;8.536;2023-03-05T06:28:35;2.15;;;0.88;;
53654;SDS011;39558;52.028;8.536;2023-03-05T06:31:02;2.78;;;0.52;;
53654;SDS011;39558;52.028;8.536;2023-03-05T06:33:28;2.45;;;0.60;;
53654;SDS011;39558;52.028;8.536;2023-03-05T06:35:54;1.25;;;0.40;;
53654;SDS011;39558;52.028;8.536;2023-03-05T06:38:20;2.40;;;0.50;;
53654;SDS011;39558;52.028;8.536;2023-03-05T06:40:46;1.38;;;0.35;;
53654;SDS011;39558;52.028;8.536;2023-03-05T06:43:12;1.85;;;0.70;;
53654;SDS011;39558;52.028;8.536;2023-03-05T06:45:38;1.98;;;0.57;;
53654;SDS011;39558;52.028;8.536;2023-03-05T06:48:04;4.97;;;0.88;;
53654;SDS011;39558;52.028;8.536;2023-03-05T06:50:29;2.10;;;0.40;;
53654;SDS011;39558;52.028;8.536;2023-03-05T06:52:58;3.78;;;0.50;;
53654;SDS011;39558;52.028;8.536;2023-03-05T06:55:24;2.65;;;0.65;;
53654;SDS011;39558;52.028;8.536;2023-03-05T06:57:50;2.13;;;0.60;;
53654;SDS011;39558;52.028;8.536;2023-03-05T07:00:16;2.72;;;0.68;;
53654;SDS011;39558;52.028;8.536;2023-03-05T07:02:42;2.28;;;0.70;;
53654;SDS011;39558;52.028;8.536;2023-03-05T07:05:08;2.20;;;0.50;;
53654;SDS011;39558;52.028;8.536;2023-03-05T07:07:34;2.88;;;1.15;;
53654;SDS011;39558;52.028;8.536;2023-03-05T07:10:00;1.70;;;0.52;;
53654;SDS011;39558;52.028;8.536;2023-03-05T07:12:27;2.25;;;0.30;;
53654;SDS011;39558;52.028;8.536;2023-03-05T07:14:53;3.28;;;0.60;;
53654;SDS011;39558;52.028;8.536;2023-03-05T07:17:19;2.30;;;0.75;;
53654;SDS011;39558;52.028;8.536;2023-03-05T07:19:45;1.48;;;0.50;;
53654;SDS011;39558;52.028;8.536;2023-03-05T07:22:10;0.88;;;0.40;;
53654;SDS011;39558;52.028;8.536;2023-03-05T07:24:36;0.93;;;0.38;;
53654;SDS011;39558;52.028;8.536;2023-03-05T07:27:02;1.17;;;0.38;;
53654;SDS011;39558;52.028;8.536;2023-03-05T07:29:28;0.80;;;0.30;;
53654;SDS011;39558;52.028;8.536;2023-03-05T07:31:54;2.03;;;0.43;;
53654;SDS011;39558;52.028;8.536;2023-03-05T07:34:20;1.80;;;0.40;;
53654;SDS011;39558;52.028;8.536;2023-03-05T07:36:50;3.55;;;0.60;;
53654;SDS011;39558;52.028;8.536;2023-03-05T07:39:17;1.58;;;0.50;;
53654;SDS011;39558;52.028;8.536;2023-03-05T07:41:44;2.33;;;0.88;;
53654;SDS011;39558;52.028;8.536;2023-03-05T07:44:10;3.45;;;0.43;;
53654;SDS011;39558;52.028;8.536;2023-03-05T07:46:36;1.35;;;0.38;;
53654;SDS011;39558;52.028;8.536;2023-03-05T07:49:02;1.73;;;0.50;;
53654;SDS011;39558;52.028;8.536;2023-03-05T07:51:28;1.63;;;0.40;;
53654;SDS011;39558;52.028;8.536;2023-03-05T07:53:54;1.38;;;0.35;;
53654;SDS011;39558;52.028;8.536;2023-03-05T07:58:47;2.25;;;0.70;;
53654;SDS011;39558;52.028;8.536;2023-03-05T08:01:13;3.75;;;0.55;;
53654;SDS011;39558;52.028;8.536;2023-03-05T08:03:39;1.95;;;0.47;;
53654;SDS011;39558;52.028;8.536;2023-03-05T08:06:06;2.28;;;0.80;;
53654;SDS011;39558;52.028;8.536;2023-03-05T08:08:32;1.20;;;0.40;;
53654;SDS011;39558;52.028;8.536;2023-03-05T08:11:05;1.00;;;0.30;;
53654;SDS011;39558;52.028;8.536;2023-03-05T08:13:31;0.95;;;0.40;;
53654;SDS011;39558;52.028;8.536;2023-03-05T08:15:57;0.55;;;0.30;;
53654;SDS011;39558;52.028;8.536;2023-03-05T08:18:23;1.27;;;0.30;;
53654;SDS011;39558;52.028;8.536;2023-03-05T08:20:49;1.40;;;0.40;;
53654;SDS011;39558;52.028;8.536;2023-03-05T08:23:15;1.17;;;0.40;;
53654;SDS011;39558;52.028;8.536;2023-03-05T08:25:41;0.80;;;0.40;;
53654;SDS011;39558;52.028;8.536;2023-03-05T08:28:07;2.88;;;0.73;;
53654;SDS011;39558;52.028;8.536;2023-03-05T08:30:33;0.90;;;0.30;;
53654;SDS011;39558;52.028;8.536;2023-03-05T08:32:59;1.65;;;0.55;;
53654;SDS011;39558;52.028;8.536;2023-03-05T08:35:24;2.53;;;0.50;;
53654;SDS011;39558;52.028;8.536;2023-03-05T08:37:50;1.63;;;0.30;;
53654;SDS011;39558;52.028;8.536;2023-03-05T08:40:16;3.95;;;0.25;;
53654;SDS011;39558;52.028;8.536;2023-03-05T08:42:43;1.35;;;0.35;;
53654;SDS011;39558;52.028;8.536;2023-03-05T08:45:09;3.15;;;0.70;;
53654;SDS011;39558;52.028;8.536;2023-03-05T08:47:35;1.45;;;0.40;;
53654;SDS011;39558;52.028;8.536;2023-03-05T08:50:01;2.33;;;0.43;;
53654;SDS011;39558;52.028;8.536;2023-03-05T08:52:28;0.88;;;0.22;;
53654;SDS011;39558;52.028;8.536;2023-03-05T08:54:54;0.90;;;0.20;;
53654;SDS011;39558;52.028;8.536;2023-03-05T08:57:20;2.90;;;0.43;;
53654;SDS011;39558;52.028;8.536;2023-03-05T08:59:46;1.23;;;0.40;;
53654;SDS011;39558;52.028;8.536;2023-03-05T09:02:12;2.15;;;0.60;;
53654;SDS011;39558;52.028;8.536;2023-03-05T09:04:38;3.55;;;0.70;;
53654;SDS011;39558;52.028;8.536;2023-03-05T09:07:04;3.40;;;0.57;;
53654;SDS011;39558;52.028;8.536;2023-03-05T09:09:30;3.63;;;0.40;;
53654;SDS011;39558;52.028;8.536;2023-03-05T09:11:57;1.40;;;0.63;;
53654;SDS011;39558;52.028;8.536;2023-03-05T09:14:23;1.13;;;0.35;;
53654;SDS011;39558;52.028;8.536;2023-03-05T09:16:49;1.77;;;0.40;;
53654;SDS011;39558;52.028;8.536;2023-03-05T09:19:15;3.97;;;0.60;;
53654;SDS011;39558;52.028;8.536;2023-03-05T09:21:41;2.05;;;0.93;;
53654;SDS011;39558;52.028;8.536;2023-03-05T09:24:07;1.25;;;0.38;;
53654;SDS011;39558;52.028;8.536;2023-03-05T09:26:33;2.35;;;0.60;;
53654;SDS011;39558;52.028;8.536;2023-03-05T09:28:59;1.13;;;0.43;;
53654;SDS011;39558;52.028;8.536;2023-03-05T09:31:24;2.25;;;0.52;;
53654;SDS011;39558;52.028;8.536;2023-03-05T09:33:50;0.88;;;0.20;;
53654;SDS011;39558;52.028;8.536;2023-03-05T09:36:18;1.27;;;0.40;;
53654;SDS011;39558;52.028;8.536;2023-03-05T09:38:44;2.15;;;0.73;;
53654;SDS011;39558;52.028;8.536;2023-03-05T09:41:19;2.13;;;0.50;;
53654;SDS011;39558;52.028;8.536;2023-03-05T09:43:49;1.30;;;0.47;;
53654;SDS011;39558;52.028;8.536;2023-03-05T09:46:31;1.55;;;0.40;;
53654;SDS011;39558;52.028;8.536;2023-03-05T09:49:11;0.93;;;0.22;;
53654;SDS011;39558;52.028;8.536;2023-03-05T09:51:39;1.52;;;0.30;;
53654;SDS011;39558;52.028;8.536;2023-03-05T09:54:11;0.60;;;0.22;;
53654;SDS011;39558;52.028;8.536;2023-03-05T09:56:42;1.80;;;0.65;;
53654;SDS011;39558;52.028;8.536;2023-03-05T09:59:15;1.40;;;0.35;;
53654;SDS011;39558;52.028;8.536;2023-03-05T10:01:42;2.47;;;0.40;;
53654;SDS011;39558;52.028;8.536;2023-03-05T10:06:46;2.30;;;0.50;;
53654;SDS011;39558;52.028;8.536;2023-03-05T10:09:16;1.83;;;0.50;;
53654;SDS011;39558;52.028;8.536;2023-03-05T10:11:48;0.65;;;0.30;;
53654;SDS011;39558;52.028;8.536;2023-03-05T10:17:02;1.23;;;0.30;;
53654;SDS011;39558;52.028;8.536;2023-03-05T10:21:59;1.67;;;0.43;;
53654;SDS011;39558;52.028;8.536;2023-03-05T10:24:39;2.25;;;0.45;;
53654;SDS011;39558;52.028;8.536;2023-03-05T10:27:07;1.08;;;0.30;;
53654;SDS011;39558;52.028;8.536;2023-03-05T10:29:40;1.17;;;0.40;;
53654;SDS011;39558;52.028;8.536;2023-03-05T10:32:21;0.70;;;0.22;;
53654;SDS011;39558;52.028;8.536;2023-03-05T10:34:54;2.37;;;0.77;;
53654;SDS011;39558;52.028;8.536;2023-03-05T10:37:27;1.52;;;0.52;;
53654;SDS011;39558;52.028;8.536;2023-03-05T10:39:59;2.35;;;0.30;;
53654;SDS011;39558;52.028;8.536;2023-03-05T10:42:27;2.05;;;0.50;;
53654;SDS011;39558;52.028;8.536;2023-03-05T10:44:56;1.08;;;0.40;;
53654;SDS011;39558;52.028;8.536;2023-03-05T10:49:49;0.40;;;0.20;;
53654;SDS011;39558;52.028;8.536;2023-03-05T10:52:17;1.80;;;0.35;;
53654;SDS011;39558;52.028;8.536;2023-03-05T10:54:43;1.65;;;0.20;;
53654;SDS011;39558;52.028;8.536;2023-03-05T10:57:19;3.00;;;0.38;;
53654;SDS011;39558;52.028;8.536;2023-03-05T10:59:47;1.77;;;0.40;;
53654;SDS011;39558;52.028;8.536;2023-03-05T11:02:13;1.17;;;0.40;;
53654;SDS011;39558;52.028;8.536;2023-03-05T11:04:40;1.33;;;0.25;;
53654;SDS011;39558;52.028;8.536;2023-03-05T11:07:07;1.23;;;0.20;;
53654;SDS011;39558;52.028;8.536;2023-03-05T11:09:33;1.05;;;0.77;;
53654;SDS011;39558;52.028;8.536;2023-03-05T11:14:26;1.52;;;0.30;;
53654;SDS011;39558;52.028;8.536;2023-03-05T11:16:57;4.95;;;0.43;;
53654;SDS011;39558;52.028;8.536;2023-03-05T11:19:24;3.10;;;0.55;;
53654;SDS011;39558;52.028;8.536;2023-03-05T11:22:04;0.73;;;0.30;;
53654;SDS011;39558;52.028;8.536;2023-03-05T11:24:30;1.95;;;0.50;;
53654;SDS011;39558;52.028;8.536;2023-03-05T11:26:57;1.60;;;0.30;;
53654;SDS011;39558;52.028;8.536;2023-03-05T11:29:30;1.13;;;0.40;;
53654;SDS011;39558;52.028;8.536;2023-03-05T11:34:55;1.17;;;0.43;;
53654;SDS011;39558;52.028;8.536;2023-03-05T11:37:26;1.13;;;0.30;;
53654;SDS011;39558;52.028;8.536;2023-03-05T11:42:53;2.20;;;0.30;;
53654;SDS011;39558;52.028;8.536;2023-03-05T11:45:20;2.33;;;0.28;;
53654;SDS011;39558;52.028;8.536;2023-03-05T11:47:47;2.13;;;0.55;;
53654;SDS011;39558;52.028;8.536;2023-03-05T11:50:24;0.28;;;0.17;;
53654;SDS011;39558;52.028;8.536;2023-03-05T11:52:51;5.13;;;0.75;;
53654;SDS011;39558;52.028;8.536;2023-03-05T11:58:09;0.50;;;0.20;;
53654;SDS011;39558;52.028;8.536;2023-03-05T12:00:39;1.05;;;0.20;;
53654;SDS011;39558;52.028;8.536;2023-03-05T12:03:08;0.68;;;0.20;;
53654;SDS011;39558;52.028;8.536;2023-03-05T12:05:36;1.10;;;0.53;;
53654;SDS011;39558;52.028;8.536;2023-03-05T12:08:04;1.30;;;0.43;;
53654;SDS011;39558;52.028;8.536;2023-03-05T12:10:31;0.70;;;0.30;;
53654;SDS011;39558;52.028;8.536;2023-03-05T12:13:40;1.27;;;0.20;;
53654;SDS011;39558;52.028;8.536;2023-03-05T12:15:48;3.08;;;0.50;;
53654;SDS011;39558;52.028;8.536;2023-03-05T12:18:43;0.65;;;0.22;;
53654;SDS011;39558;52.028;8.536;2023-03-05T12:21:14;0.65;;;0.30;;
53654;SDS011;39558;52.028;8.536;2023-03-05T12:23:49;0.73;;;0.13;;
53654;SDS011;39558;52.028;8.536;2023-03-05T12:26:15;0.63;;;0.20;;
53654;SDS011;39558;52.028;8.536;2023-03-05T12:31:26;1.42;;;0.30;;
53654;SDS011;39558;52.028;8.536;2023-03-05T12:33:52;1.63;;;0.22;;
53654;SDS011;39558;52.028;8.536;2023-03-05T12:38:44;1.52;;;0.20;;
53654;SDS011;39558;52.028;8.536;2023-03-05T12:46:34;0.50;;;0.20;;
53654;SDS011;39558;52.028;8.536;2023-03-05T12:49:26;1.13;;;0.40;;
53654;SDS011;39558;52.028;8.536;2023-03-05T12:51:53;1.65;;;0.30;;
53654;SDS011;39558;52.028;8.536;2023-03-05T12:54:30;0.98;;;0.40;;
53654;SDS011;39558;52.028;8.536;2023-03-05T12:56:57;2.38;;;0.40;;
53654;SDS011;39558;52.028;8.536;2023-03-05T12:59:27;0.75;;;0.30;;
53654;SDS011;39558;52.028;8.536;2023-03-05T13:01:55;0.93;;;0.20;;
53654;SDS011;39558;52.028;8.536;2023-03-05T13:04:23;0.63;;;0.20;;
53654;SDS011;39558;52.028;8.536;2023-03-05T13:06:56;1.48;;;0.38;;
53654;SDS011;39558;52.028;8.536;2023-03-05T13:09:27;1.90;;;0.70;;
53654;SDS011;39558;52.028;8.536;2023-03-05T13:11:53;1.08;;;0.40;;
53654;SDS011;39558;52.028;8.536;2023-03-05T13:14:25;2.13;;;0.43;;
53654;SDS011;39558;52.028;8.536;2023-03-05T13:16:52;1.00;;;0.22;;
53654;SDS011;39558;52.028;8.536;2023-03-05T13:19:18;0.95;;;0.20;;
53654;SDS011;39558;52.028;8.536;2023-03-05T13:21:44;1.35;;;0.40;;
53654;SDS011;39558;52.028;8.536;2023-03-05T13:24:17;0.95;;;0.20;;
53654;SDS011;39558;52.028;8.536;2023-03-05T13:26:43;1.23;;;0.30;;
53654;SDS011;39558;52.028;8.536;2023-03-05T13:29:19;1.27;;;0.25;;
53654;SDS011;39558;52.028;8.536;2023-03-05T13:31:56;0.90;;;0.38;;
53654;SDS011;39558;52.028;8.536;2023-03-05T13:34:24;1.25;;;0.28;;
53654;SDS011;39558;52.028;8.536;2023-03-05T13:39:17;2.50;;;0.50;;
53654;SDS011;39558;52.028;8.536;2023-03-05T13:41:54;0.90;;;0.32;;
53654;SDS011;39558;52.028;8.536;2023-03-05T13:44:20;0.95;;;0.40;;
53654;SDS011;39558;52.028;8.536;2023-03-05T13:46:46;1.17;;;0.30;;
53654;SDS011;39558;52.028;8.536;2023-03-05T13:49:20;0.65;;;0.20;;
53654;SDS011;39558;52.028;8.536;2023-03-05T13:51:48;2.17;;;0.85;;
53654;SDS011;39558;52.028;8.536;2023-03-05T13:54:15;0.60;;;0.20;;
53654;SDS011;39558;52.028;8.536;2023-03-05T13:56:48;0.25;;;0.20;;
53654;SDS011;39558;52.028;8.536;2023-03-05T13:59:18;0.57;;;0.20;;
53654;SDS011;39558;52.028;8.536;2023-03-05T14:01:45;1.40;;;0.40;;
53654;SDS011;39558;52.028;8.536;2023-03-05T14:09:19;1.42;;;0.40;;
53654;SDS011;39558;52.028;8.536;2023-03-05T14:14:38;1.20;;;0.52;;
53654;SDS011;39558;52.028;8.536;2023-03-05T14:19:48;0.52;;;0.32;;
53654;SDS011;39558;52.028;8.536;2023-03-05T14:22:34;1.55;;;0.40;;
53654;SDS011;39558;52.028;8.536;2023-03-05T14:25:00;1.05;;;0.20;;
53654;SDS011;39558;52.028;8.536;2023-03-05T14:27:27;0.68;;;0.30;;
53654;SDS011;39558;52.028;8.536;2023-03-05T14:29:56;0.35;;;0.20;;
53654;SDS011;39558;52.028;8.536;2023-03-05T14:32:24;1.92;;;0.50;;
53654;SDS011;39558;52.028;8.536;2023-03-05T14:34:56;0.57;;;0.25;;
53654;SDS011;39558;52.028;8.536;2023-03-05T14:37:24;2.25;;;0.63;;
53654;SDS011;39558;52.028;8.536;2023-03-05T14:39:52;0.77;;;0.30;;
53654;SDS011;39558;52.028;8.536;2023-03-05T14:42:26;0.60;;;0.22;;
53654;SDS011;39558;52.028;8.536;2023-03-05T14:44:53;2.13;;;0.30;;
53654;SDS011;39558;52.028;8.536;2023-03-05T14:47:23;1.05;;;0.20;;
53654;SDS011;39558;52.028;8.536;2023-03-05T14:49:50;3.80;;;0.47;;
53654;SDS011;39558;52.028;8.536;2023-03-05T14:52:16;0.85;;;0.30;;
53654;SDS011;39558;52.028;8.536;2023-03-05T14:54:42;0.80;;;0.28;;
53654;SDS011;39558;52.028;8.536;2023-03-05T14:57:11;1.23;;;0.30;;
53654;SDS011;39558;52.028;8.536;2023-03-05T14:59:39;0.80;;;0.20;;
53654;SDS011;39558;52.028;8.536;2023-03-05T15:02:09;0.95;;;0.13;;
53654;SDS011;39558;52.028;8.536;2023-03-05T15:04:35;1.23;;;0.30;;
53654;SDS011;39558;52.028;8.536;2023-03-05T15:07:01;2.08;;;0.38;;
53654;SDS011;39558;52.028;8.536;2023-03-05T15:09:27;0.65;;;0.35;;
53654;SDS011;39558;52.028;8.536;2023-03-05T15:11:53;0.80;;;0.35;;
53654;SDS011;39558;52.028;8.536;2023-03-05T15:14:19;1.50;;;0.38;;
53654;SDS011;39558;52.028;8.536;2023-03-05T15:16:45;1.42;;;0.40;;
53654;SDS011;39558;52.028;8.536;2023-03-05T15:19:12;0.82;;;0.25;;
53654;SDS011;39558;52.028;8.536;2023-03-05T15:21:38;0.77;;;0.40;;
53654;SDS011;39558;52.028;8.536;2023-03-05T15:24:04;1.25;;;0.20;;
53654;SDS011;39558;52.028;8.536;2023-03-05T15:26:30;1.25;;;0.30;;
53654;SDS011;39558;52.028;8.536;2023-03-05T15:28:56;0.60;;;0.25;;
53654;SDS011;39558;52.028;8.536;2023-03-05T15:31:22;1.55;;;0.47;;
53654;SDS011;39558;52.028;8.536;2023-03-05T15:33:48;1.55;;;0.20;;
53654;SDS011;39558;52.028;8.536;2023-03-05T15:36:14;1.38;;;0.40;;
53654;SDS011;39558;52.028;8.536;2023-03-05T15:38:40;0.82;;;0.25;;